sensor_id;sensor_type;location;lat;lon;timestamp;P1;durP1;ratioP1;P2;durP2;ratioP2
66523;SDS011;53350;52.210;5.160;2024-01-16T00:00:32;11.25;;;1.35;;
66523;SDS011;53350;52.210;5.160;2024-01-16T00:02:58;12.70;;;1.40;;
66523;SDS011;53350;52.210;5.160;2024-01-16T00:05:24;9.35;;;2.08;;
66523;SDS011;53350;52.210;5.160;2024-01-16T00:07:51;8.73;;;1.20;;
66523;SDS011;53350;52.210;5.160;2024-01-16T00:10:17;11.13;;;1.50;;
66523;SDS011;53350;52.210;5.160;2024-01-16T00:12:44;11.30;;;1.50;;
66523;SDS011;53350;52.210;5.160;2024-01-16T00:15:10;6.18;;;1.48;;
66523;SDS011;53350;52.210;5.160;2024-01-16T00:17:38;10.73;;;1.25;;
66523;SDS011;53350;52.210;5.160;2024-01-16T00:20:05;12.43;;;2.55;;
66523;SDS011;53350;52.210;5.160;2024-01-16T00:22:32;9.57;;;1.80;;
66523;SDS011;53350;52.210;5.160;2024-01-16T00:24:58;8.75;;;1.05;;
66523;SDS011;53350;52.210;5.160;2024-01-16T00:27:25;5.32;;;0.90;;
66523;SDS011;53350;52.210;5.160;2024-01-16T00:29:51;12.52;;;1.73;;
66523;SDS011;53350;52.210;5.160;2024-01-16T00:32:18;12.05;;;1.63;;
66523;SDS011;53350;52.210;5.160;2024-01-16T00:34:45;8.68;;;1.00;;
66523;SDS011;53350;52.210;5.160;2024-01-16T00:37:12;8.82;;;1.35;;
66523;SDS011;53350;52.210;5.160;2024-01-16T00:39:38;8.27;;;1.25;;
66523;SDS011;53350;52.210;5.160;2024-01-16T00:42:05;3.88;;;1.02;;
66523;SDS011;53350;52.210;5.160;2024-01-16T00:44:31;11.07;;;1.38;;
66523;SDS011;53350;52.210;5.160;2024-01-16T00:46:58;18.58;;;2.15;;
66523;SDS011;53350;52.210;5.160;2024-01-16T00:49:26;5.80;;;0.93;;
66523;SDS011;53350;52.210;5.160;2024-01-16T00:51:54;13.27;;;1.85;;
66523;SDS011;53350;52.210;5.160;2024-01-16T00:54:20;10.85;;;1.40;;
66523;SDS011;53350;52.210;5.160;2024-01-16T00:56:47;9.27;;;1.15;;
66523;SDS011;53350;52.210;5.160;2024-01-16T00:59:13;8.05;;;1.40;;
66523;SDS011;53350;52.210;5.160;2024-01-16T01:01:40;8.73;;;1.30;;
66523;SDS011;53350;52.210;5.160;2024-01-16T01:04:06;10.48;;;1.30;;
66523;SDS011;53350;52.210;5.160;2024-01-16T01:06:34;9.90;;;1.30;;
66523;SDS011;53350;52.210;5.160;2024-01-16T01:11:29;6.05;;;1.20;;
66523;SDS011;53350;52.210;5.160;2024-01-16T01:13:55;9.93;;;1.20;;
66523;SDS011;53350;52.210;5.160;2024-01-16T01:16:22;9.70;;;1.20;;
66523;SDS011;53350;52.210;5.160;2024-01-16T01:18:48;10.63;;;1.15;;
66523;SDS011;53350;52.210;5.160;2024-01-16T01:21:14;9.50;;;1.10;;
66523;SDS011;53350;52.210;5.160;2024-01-16T01:23:41;8.48;;;0.93;;
66523;SDS011;53350;52.210;5.160;2024-01-16T01:26:09;10.38;;;1.30;;
66523;SDS011;53350;52.210;5.160;2024-01-16T01:28:38;6.80;;;1.20;;
66523;SDS011;53350;52.210;5.160;2024-01-16T01:31:05;15.27;;;1.45;;
66523;SDS011;53350;52.210;5.160;2024-01-16T01:33:31;9.85;;;1.23;;
66523;SDS011;53350;52.210;5.160;2024-01-16T01:35:58;7.95;;;1.30;;
66523;SDS011;53350;52.210;5.160;2024-01-16T01:38:24;9.90;;;1.27;;
66523;SDS011;53350;52.210;5.160;2024-01-16T01:40:50;9.70;;;1.30;;
66523;SDS011;53350;52.210;5.160;2024-01-16T01:43:18;11.45;;;1.20;;
66523;SDS011;53350;52.210;5.160;2024-01-16T01:45:47;5.50;;;0.95;;
66523;SDS011;53350;52.210;5.160;2024-01-16T01:48:34;7.35;;;1.00;;
66523;SDS011;53350;52.210;5.160;2024-01-16T01:51:00;6.20;;;0.90;;
66523;SDS011;53350;52.210;5.160;2024-01-16T01:53:28;7.47;;;0.93;;
66523;SDS011;53350;52.210;5.160;2024-01-16T01:55:56;11.73;;;1.10;;
66523;SDS011;53350;52.210;5.160;2024-01-16T01:58:24;6.30;;;0.98;;
66523;SDS011;53350;52.210;5.160;2024-01-16T02:00:51;6.38;;;0.80;;
66523;SDS011;53350;52.210;5.160;2024-01-16T02:03:17;5.35;;;0.88;;
66523;SDS011;53350;52.210;5.160;2024-01-16T02:05:44;5.07;;;0.85;;
66523;SDS011;53350;52.210;5.160;2024-01-16T02:08:12;8.05;;;0.90;;
66523;SDS011;53350;52.210;5.160;2024-01-16T02:10:38;2.95;;;0.50;;
66523;SDS011;53350;52.210;5.160;2024-01-16T02:13:09;4.40;;;0.90;;
66523;SDS011;53350;52.210;5.160;2024-01-16T02:15:37;7.18;;;1.20;;
66523;SDS011;53350;52.210;5.160;2024-01-16T02:18:06;0.35;;;0.28;;
66523;SDS011;53350;52.210;5.160;2024-01-16T02:20:32;0.95;;;0.40;;
66523;SDS011;53350;52.210;5.160;2024-01-16T02:22:59;4.13;;;0.50;;
66523;SDS011;53350;52.210;5.160;2024-01-16T02:25:30;1.80;;;0.38;;
66523;SDS011;53350;52.210;5.160;2024-01-16T02:27:57;1.35;;;0.32;;
66523;SDS011;53350;52.210;5.160;2024-01-16T02:30:23;7.70;;;1.13;;
66523;SDS011;53350;52.210;5.160;2024-01-16T02:32:50;3.85;;;0.60;;
66523;SDS011;53350;52.210;5.160;2024-01-16T02:35:18;4.78;;;0.88;;
66523;SDS011;53350;52.210;5.160;2024-01-16T02:37:44;3.92;;;0.55;;
66523;SDS011;53350;52.210;5.160;2024-01-16T02:40:11;4.88;;;0.55;;
66523;SDS011;53350;52.210;5.160;2024-01-16T02:42:39;2.38;;;0.35;;
66523;SDS011;53350;52.210;5.160;2024-01-16T02:45:06;5.60;;;0.77;;
66523;SDS011;53350;52.210;5.160;2024-01-16T02:47:33;2.50;;;0.40;;
66523;SDS011;53350;52.210;5.160;2024-01-16T02:50:00;3.35;;;0.35;;
66523;SDS011;53350;52.210;5.160;2024-01-16T02:52:26;4.10;;;0.63;;
66523;SDS011;53350;52.210;5.160;2024-01-16T02:54:53;4.00;;;0.60;;
66523;SDS011;53350;52.210;5.160;2024-01-16T02:57:19;3.90;;;0.65;;
66523;SDS011;53350;52.210;5.160;2024-01-16T02:59:47;4.38;;;0.95;;
66523;SDS011;53350;52.210;5.160;2024-01-16T03:02:14;5.18;;;0.55;;
66523;SDS011;53350;52.210;5.160;2024-01-16T03:04:40;8.18;;;1.02;;
66523;SDS011;53350;52.210;5.160;2024-01-16T03:07:07;3.35;;;0.63;;
66523;SDS011;53350;52.210;5.160;2024-01-16T03:09:33;4.50;;;0.65;;
66523;SDS011;53350;52.210;5.160;2024-01-16T03:12:00;3.50;;;0.38;;
66523;SDS011;53350;52.210;5.160;2024-01-16T03:14:26;3.20;;;0.52;;
66523;SDS011;53350;52.210;5.160;2024-01-16T03:16:54;3.72;;;0.57;;
66523;SDS011;53350;52.210;5.160;2024-01-16T03:19:21;4.80;;;0.68;;
66523;SDS011;53350;52.210;5.160;2024-01-16T03:21:47;5.68;;;0.60;;
66523;SDS011;53350;52.210;5.160;2024-01-16T03:24:14;3.63;;;0.70;;
66523;SDS011;53350;52.210;5.160;2024-01-16T03:26:40;6.68;;;0.85;;
66523;SDS011;53350;52.210;5.160;2024-01-16T03:29:07;3.00;;;0.40;;
66523;SDS011;53350;52.210;5.160;2024-01-16T03:31:34;2.28;;;0.50;;
66523;SDS011;53350;52.210;5.160;2024-01-16T03:34:01;2.28;;;0.40;;
66523;SDS011;53350;52.210;5.160;2024-01-16T03:36:28;6.30;;;0.70;;
66523;SDS011;53350;52.210;5.160;2024-01-16T03:38:54;4.35;;;0.60;;
66523;SDS011;53350;52.210;5.160;2024-01-16T03:41:21;2.45;;;0.40;;
66523;SDS011;53350;52.210;5.160;2024-01-16T03:43:47;3.75;;;0.50;;
66523;SDS011;53350;52.210;5.160;2024-01-16T03:46:14;7.22;;;0.70;;
66523;SDS011;53350;52.210;5.160;2024-01-16T03:48:40;2.53;;;0.50;;
66523;SDS011;53350;52.210;5.160;2024-01-16T03:51:08;3.67;;;0.52;;
66523;SDS011;53350;52.210;5.160;2024-01-16T03:53:35;5.57;;;0.55;;
66523;SDS011;53350;52.210;5.160;2024-01-16T03:56:01;3.70;;;0.45;;
66523;SDS011;53350;52.210;5.160;2024-01-16T03:58:28;5.35;;;0.40;;
66523;SDS011;53350;52.210;5.160;2024-01-16T04:00:54;2.65;;;0.40;;
66523;SDS011;53350;52.210;5.160;2024-01-16T04:03:21;3.00;;;0.50;;
66523;SDS011;53350;52.210;5.160;2024-01-16T04:05:48;6.05;;;0.88;;
66523;SDS011;53350;52.210;5.160;2024-01-16T04:08:15;3.70;;;0.45;;
66523;SDS011;53350;52.210;5.160;2024-01-16T04:10:42;3.38;;;1.05;;
66523;SDS011;53350;52.210;5.160;2024-01-16T04:13:08;8.00;;;0.65;;
66523;SDS011;53350;52.210;5.160;2024-01-16T04:15:37;1.48;;;0.40;;
66523;SDS011;53350;52.210;5.160;2024-01-16T04:18:03;2.95;;;0.47;;
66523;SDS011;53350;52.210;5.160;2024-01-16T04:20:30;4.05;;;0.50;;
66523;SDS011;53350;52.210;5.160;2024-01-16T04:22:57;3.28;;;0.50;;
66523;SDS011;53350;52.210;5.160;2024-01-16T04:25:25;3.30;;;1.00;;
66523;SDS011;53350;52.210;5.160;2024-01-16T04:27:51;2.15;;;0.60;;
66523;SDS011;53350;52.210;5.160;2024-01-16T04:30:16;4.53;;;0.73;;
66523;SDS011;53350;52.210;5.160;2024-01-16T04:32:45;1.58;;;0.57;;
66523;SDS011;53350;52.210;5.160;2024-01-16T04:35:11;3.65;;;0.70;;
66523;SDS011;53350;52.210;5.160;2024-01-16T04:37:38;4.93;;;0.70;;
66523;SDS011;53350;52.210;5.160;2024-01-16T04:40:04;4.90;;;0.90;;
66523;SDS011;53350;52.210;5.160;2024-01-16T04:42:33;5.00;;;0.95;;
66523;SDS011;53350;52.210;5.160;2024-01-16T04:44:59;4.55;;;0.88;;
66523;SDS011;53350;52.210;5.160;2024-01-16T04:47:26;8.77;;;0.80;;
66523;SDS011;53350;52.210;5.160;2024-01-16T04:49:52;8.98;;;0.90;;
66523;SDS011;53350;52.210;5.160;2024-01-16T04:52:19;8.75;;;0.90;;
66523;SDS011;53350;52.210;5.160;2024-01-16T04:54:45;5.63;;;0.80;;
66523;SDS011;53350;52.210;5.160;2024-01-16T04:57:11;5.72;;;0.82;;
66523;SDS011;53350;52.210;5.160;2024-01-16T04:59:39;4.32;;;0.73;;
66523;SDS011;53350;52.210;5.160;2024-01-16T05:02:06;5.95;;;1.00;;
66523;SDS011;53350;52.210;5.160;2024-01-16T05:04:33;6.55;;;1.17;;
66523;SDS011;53350;52.210;5.160;2024-01-16T05:07:03;6.95;;;0.93;;
66523;SDS011;53350;52.210;5.160;2024-01-16T05:09:29;6.50;;;0.85;;
66523;SDS011;53350;52.210;5.160;2024-01-16T05:11:56;5.80;;;0.95;;
66523;SDS011;53350;52.210;5.160;2024-01-16T05:14:22;6.50;;;0.90;;
66523;SDS011;53350;52.210;5.160;2024-01-16T05:16:51;8.23;;;1.00;;
66523;SDS011;53350;52.210;5.160;2024-01-16T05:19:17;4.63;;;0.70;;
66523;SDS011;53350;52.210;5.160;2024-01-16T05:21:44;8.35;;;1.45;;
66523;SDS011;53350;52.210;5.160;2024-01-16T05:24:10;6.78;;;0.73;;
66523;SDS011;53350;52.210;5.160;2024-01-16T05:26:37;5.32;;;0.60;;
66523;SDS011;53350;52.210;5.160;2024-01-16T05:29:03;8.10;;;1.10;;
66523;SDS011;53350;52.210;5.160;2024-01-16T05:31:30;8.60;;;1.80;;
66523;SDS011;53350;52.210;5.160;2024-01-16T05:33:57;7.22;;;1.10;;
66523;SDS011;53350;52.210;5.160;2024-01-16T05:36:24;3.78;;;1.05;;
66523;SDS011;53350;52.210;5.160;2024-01-16T05:38:52;6.57;;;1.00;;
66523;SDS011;53350;52.210;5.160;2024-01-16T05:41:19;5.65;;;0.75;;
66523;SDS011;53350;52.210;5.160;2024-01-16T05:43:45;4.85;;;0.77;;
66523;SDS011;53350;52.210;5.160;2024-01-16T05:46:12;5.45;;;1.02;;
66523;SDS011;53350;52.210;5.160;2024-01-16T05:48:39;6.57;;;0.88;;
66523;SDS011;53350;52.210;5.160;2024-01-16T05:51:06;10.95;;;1.90;;
66523;SDS011;53350;52.210;5.160;2024-01-16T05:53:33;7.70;;;1.10;;
66523;SDS011;53350;52.210;5.160;2024-01-16T05:55:59;5.82;;;0.68;;
66523;SDS011;53350;52.210;5.160;2024-01-16T05:58:26;5.50;;;0.75;;
66523;SDS011;53350;52.210;5.160;2024-01-16T06:00:52;6.50;;;0.77;;
66523;SDS011;53350;52.210;5.160;2024-01-16T06:03:18;4.85;;;0.70;;
66523;SDS011;53350;52.210;5.160;2024-01-16T06:05:45;8.25;;;1.27;;
66523;SDS011;53350;52.210;5.160;2024-01-16T06:08:13;2.13;;;0.60;;
66523;SDS011;53350;52.210;5.160;2024-01-16T06:10:39;7.18;;;1.00;;
66523;SDS011;53350;52.210;5.160;2024-01-16T06:13:06;5.72;;;0.70;;
66523;SDS011;53350;52.210;5.160;2024-01-16T06:15:32;2.83;;;0.93;;
66523;SDS011;53350;52.210;5.160;2024-01-16T06:17:59;4.88;;;0.95;;
66523;SDS011;53350;52.210;5.160;2024-01-16T06:20:25;3.08;;;0.70;;
66523;SDS011;53350;52.210;5.160;2024-01-16T06:22:53;5.38;;;0.65;;
66523;SDS011;53350;52.210;5.160;2024-01-16T06:25:21;5.03;;;0.93;;
66523;SDS011;53350;52.210;5.160;2024-01-16T06:27:47;2.88;;;0.52;;
66523;SDS011;53350;52.210;5.160;2024-01-16T06:30:14;5.88;;;0.88;;
66523;SDS011;53350;52.210;5.160;2024-01-16T06:32:40;0.65;;;0.30;;
66523;SDS011;53350;52.210;5.160;2024-01-16T06:35:07;4.45;;;0.73;;
66523;SDS011;53350;52.210;5.160;2024-01-16T06:37:33;6.95;;;0.80;;
66523;SDS011;53350;52.210;5.160;2024-01-16T06:40:00;3.75;;;0.80;;
66523;SDS011;53350;52.210;5.160;2024-01-16T06:42:28;1.75;;;0.45;;
66523;SDS011;53350;52.210;5.160;2024-01-16T06:44:54;4.07;;;0.70;;
66523;SDS011;53350;52.210;5.160;2024-01-16T06:47:20;3.20;;;0.70;;
66523;SDS011;53350;52.210;5.160;2024-01-16T06:49:48;5.22;;;0.82;;
66523;SDS011;53350;52.210;5.160;2024-01-16T06:52:15;7.03;;;0.90;;
66523;SDS011;53350;52.210;5.160;2024-01-16T06:54:41;5.78;;;1.10;;
66523;SDS011;53350;52.210;5.160;2024-01-16T06:57:08;8.35;;;0.98;;
66523;SDS011;53350;52.210;5.160;2024-01-16T06:59:35;7.65;;;1.00;;
66523;SDS011;53350;52.210;5.160;2024-01-16T07:02:02;5.15;;;1.13;;
66523;SDS011;53350;52.210;5.160;2024-01-16T07:04:29;5.90;;;1.27;;
66523;SDS011;53350;52.210;5.160;2024-01-16T07:06:55;4.00;;;1.35;;
66523;SDS011;53350;52.210;5.160;2024-01-16T07:09:22;5.18;;;0.80;;
66523;SDS011;53350;52.210;5.160;2024-01-16T07:11:48;6.60;;;0.80;;
66523;SDS011;53350;52.210;5.160;2024-01-16T07:14:14;4.72;;;1.02;;
66523;SDS011;53350;52.210;5.160;2024-01-16T07:16:42;3.03;;;0.70;;
66523;SDS011;53350;52.210;5.160;2024-01-16T07:19:09;4.68;;;1.02;;
66523;SDS011;53350;52.210;5.160;2024-01-16T07:21:36;8.80;;;1.30;;
66523;SDS011;53350;52.210;5.160;2024-01-16T07:24:03;6.38;;;1.10;;
66523;SDS011;53350;52.210;5.160;2024-01-16T07:26:30;5.03;;;1.15;;
66523;SDS011;53350;52.210;5.160;2024-01-16T07:28:56;8.52;;;1.50;;
66523;SDS011;53350;52.210;5.160;2024-01-16T07:31:23;9.30;;;3.63;;
66523;SDS011;53350;52.210;5.160;2024-01-16T07:33:51;6.18;;;1.80;;
66523;SDS011;53350;52.210;5.160;2024-01-16T07:36:17;11.43;;;4.55;;
66523;SDS011;53350;52.210;5.160;2024-01-16T07:38:44;9.57;;;3.20;;
66523;SDS011;53350;52.210;5.160;2024-01-16T07:41:10;9.45;;;2.28;;
66523;SDS011;53350;52.210;5.160;2024-01-16T07:43:37;6.18;;;1.90;;
66523;SDS011;53350;52.210;5.160;2024-01-16T07:46:03;6.32;;;1.75;;
66523;SDS011;53350;52.210;5.160;2024-01-16T07:48:29;11.98;;;3.17;;
66523;SDS011;53350;52.210;5.160;2024-01-16T07:50:57;10.48;;;2.03;;
66523;SDS011;53350;52.210;5.160;2024-01-16T07:53:24;10.20;;;3.80;;
66523;SDS011;53350;52.210;5.160;2024-01-16T07:55:52;8.70;;;2.80;;
66523;SDS011;53350;52.210;5.160;2024-01-16T07:58:19;11.88;;;4.03;;
66523;SDS011;53350;52.210;5.160;2024-01-16T08:00:46;9.18;;;3.42;;
66523;SDS011;53350;52.210;5.160;2024-01-16T08:03:12;11.13;;;3.15;;
66523;SDS011;53350;52.210;5.160;2024-01-16T08:05:39;9.50;;;3.10;;
66523;SDS011;53350;52.210;5.160;2024-01-16T08:08:09;9.82;;;3.75;;
66523;SDS011;53350;52.210;5.160;2024-01-16T08:10:35;7.30;;;2.78;;
66523;SDS011;53350;52.210;5.160;2024-01-16T08:13:02;8.63;;;3.80;;
66523;SDS011;53350;52.210;5.160;2024-01-16T08:15:29;13.75;;;3.70;;
66523;SDS011;53350;52.210;5.160;2024-01-16T08:17:56;6.38;;;3.35;;
66523;SDS011;53350;52.210;5.160;2024-01-16T08:20:22;11.10;;;3.38;;
66523;SDS011;53350;52.210;5.160;2024-01-16T08:22:49;7.70;;;3.53;;
66523;SDS011;53350;52.210;5.160;2024-01-16T08:25:17;8.40;;;3.40;;
66523;SDS011;53350;52.210;5.160;2024-01-16T08:27:43;8.00;;;3.35;;
66523;SDS011;53350;52.210;5.160;2024-01-16T08:30:10;8.50;;;3.45;;
66523;SDS011;53350;52.210;5.160;2024-01-16T08:32:37;9.23;;;2.88;;
66523;SDS011;53350;52.210;5.160;2024-01-16T08:35:04;8.77;;;3.58;;
66523;SDS011;53350;52.210;5.160;2024-01-16T08:37:31;13.20;;;3.58;;
66523;SDS011;53350;52.210;5.160;2024-01-16T08:39:58;11.15;;;3.10;;
66523;SDS011;53350;52.210;5.160;2024-01-16T08:42:25;11.43;;;3.60;;
66523;SDS011;53350;52.210;5.160;2024-01-16T08:44:52;13.15;;;3.60;;
66523;SDS011;53350;52.210;5.160;2024-01-16T08:47:18;9.05;;;3.00;;
66523;SDS011;53350;52.210;5.160;2024-01-16T08:49:45;12.80;;;3.10;;
66523;SDS011;53350;52.210;5.160;2024-01-16T08:52:13;9.30;;;2.97;;
66523;SDS011;53350;52.210;5.160;2024-01-16T08:54:40;9.35;;;2.65;;
66523;SDS011;53350;52.210;5.160;2024-01-16T08:57:07;11.40;;;2.40;;
66523;SDS011;53350;52.210;5.160;2024-01-16T08:59:36;9.45;;;2.33;;
66523;SDS011;53350;52.210;5.160;2024-01-16T09:02:04;18.15;;;3.00;;
66523;SDS011;53350;52.210;5.160;2024-01-16T09:04:30;10.65;;;2.10;;
66523;SDS011;53350;52.210;5.160;2024-01-16T09:06:58;9.63;;;2.00;;
66523;SDS011;53350;52.210;5.160;2024-01-16T09:09:24;9.57;;;2.08;;
66523;SDS011;53350;52.210;5.160;2024-01-16T09:11:51;9.05;;;2.10;;
66523;SDS011;53350;52.210;5.160;2024-01-16T09:14:17;11.63;;;2.55;;
66523;SDS011;53350;52.210;5.160;2024-01-16T09:16:46;7.63;;;2.33;;
66523;SDS011;53350;52.210;5.160;2024-01-16T09:19:13;11.20;;;2.00;;
66523;SDS011;53350;52.210;5.160;2024-01-16T09:21:39;8.48;;;2.13;;
66523;SDS011;53350;52.210;5.160;2024-01-16T09:24:05;9.25;;;2.30;;
66523;SDS011;53350;52.210;5.160;2024-01-16T09:26:32;11.70;;;3.30;;
66523;SDS011;53350;52.210;5.160;2024-01-16T09:28:58;8.32;;;1.73;;
66523;SDS011;53350;52.210;5.160;2024-01-16T09:31:25;8.15;;;1.90;;
66523;SDS011;53350;52.210;5.160;2024-01-16T09:33:52;11.57;;;2.60;;
66523;SDS011;53350;52.210;5.160;2024-01-16T09:36:19;13.60;;;2.30;;
66523;SDS011;53350;52.210;5.160;2024-01-16T09:38:45;9.52;;;1.63;;
66523;SDS011;53350;52.210;5.160;2024-01-16T09:41:13;10.75;;;2.03;;
66523;SDS011;53350;52.210;5.160;2024-01-16T09:43:39;6.47;;;1.77;;
66523;SDS011;53350;52.210;5.160;2024-01-16T09:46:07;14.15;;;2.47;;
66523;SDS011;53350;52.210;5.160;2024-01-16T09:51:03;13.13;;;2.33;;
66523;SDS011;53350;52.210;5.160;2024-01-16T09:53:30;10.00;;;1.50;;
66523;SDS011;53350;52.210;5.160;2024-01-16T09:55:57;5.68;;;1.60;;
66523;SDS011;53350;52.210;5.160;2024-01-16T09:58:27;7.00;;;1.92;;
66523;SDS011;53350;52.210;5.160;2024-01-16T10:00:56;8.88;;;1.50;;
66523;SDS011;53350;52.210;5.160;2024-01-16T10:03:23;8.82;;;1.92;;
66523;SDS011;53350;52.210;5.160;2024-01-16T10:05:50;4.95;;;1.15;;
66523;SDS011;53350;52.210;5.160;2024-01-16T10:08:18;9.77;;;1.73;;
66523;SDS011;53350;52.210;5.160;2024-01-16T10:10:46;6.82;;;1.48;;
66523;SDS011;53350;52.210;5.160;2024-01-16T10:13:13;8.50;;;1.98;;
66523;SDS011;53350;52.210;5.160;2024-01-16T10:15:40;8.97;;;1.57;;
66523;SDS011;53350;52.210;5.160;2024-01-16T10:18:10;10.02;;;1.55;;
66523;SDS011;53350;52.210;5.160;2024-01-16T10:20:48;6.60;;;1.58;;
66523;SDS011;53350;52.210;5.160;2024-01-16T10:23:15;7.28;;;1.60;;
66523;SDS011;53350;52.210;5.160;2024-01-16T10:26:05;7.72;;;1.63;;
66523;SDS011;53350;52.210;5.160;2024-01-16T10:28:32;5.63;;;1.80;;
66523;SDS011;53350;52.210;5.160;2024-01-16T10:31:01;10.77;;;1.95;;
66523;SDS011;53350;52.210;5.160;2024-01-16T10:33:28;15.75;;;2.00;;
66523;SDS011;53350;52.210;5.160;2024-01-16T10:36:00;9.07;;;1.77;;
66523;SDS011;53350;52.210;5.160;2024-01-16T10:38:35;8.70;;;1.70;;
66523;SDS011;53350;52.210;5.160;2024-01-16T10:41:09;12.15;;;1.50;;
66523;SDS011;53350;52.210;5.160;2024-01-16T10:43:36;9.80;;;1.85;;
66523;SDS011;53350;52.210;5.160;2024-01-16T10:46:07;8.30;;;1.70;;
66523;SDS011;53350;52.210;5.160;2024-01-16T10:48:37;7.43;;;1.55;;
66523;SDS011;53350;52.210;5.160;2024-01-16T10:51:05;9.67;;;2.00;;
66523;SDS011;53350;52.210;5.160;2024-01-16T10:53:34;6.35;;;1.50;;
66523;SDS011;53350;52.210;5.160;2024-01-16T10:56:03;9.85;;;1.90;;
66523;SDS011;53350;52.210;5.160;2024-01-16T10:58:36;8.02;;;1.83;;
66523;SDS011;53350;52.210;5.160;2024-01-16T11:01:04;6.88;;;1.60;;
66523;SDS011;53350;52.210;5.160;2024-01-16T11:03:35;7.07;;;1.70;;
66523;SDS011;53350;52.210;5.160;2024-01-16T11:06:06;10.50;;;2.45;;
66523;SDS011;53350;52.210;5.160;2024-01-16T11:08:35;9.07;;;1.87;;
66523;SDS011;53350;52.210;5.160;2024-01-16T11:11:02;5.35;;;1.52;;
66523;SDS011;53350;52.210;5.160;2024-01-16T11:13:31;6.90;;;1.35;;
66523;SDS011;53350;52.210;5.160;2024-01-16T11:15:58;3.83;;;1.25;;
66523;SDS011;53350;52.210;5.160;2024-01-16T11:18:25;8.02;;;2.38;;
66523;SDS011;53350;52.210;5.160;2024-01-16T11:20:55;10.57;;;2.00;;
66523;SDS011;53350;52.210;5.160;2024-01-16T11:23:23;8.02;;;1.55;;
66523;SDS011;53350;52.210;5.160;2024-01-16T11:25:51;5.03;;;1.60;;
66523;SDS011;53350;52.210;5.160;2024-01-16T11:28:17;6.93;;;1.42;;
66523;SDS011;53350;52.210;5.160;2024-01-16T11:30:45;6.80;;;1.35;;
66523;SDS011;53350;52.210;5.160;2024-01-16T11:39:10;6.32;;;1.40;;
66523;SDS011;53350;52.210;5.160;2024-01-16T11:41:48;8.07;;;1.60;;
66523;SDS011;53350;52.210;5.160;2024-01-16T11:47:07;5.65;;;1.23;;
66523;SDS011;53350;52.210;5.160;2024-01-16T11:49:35;6.38;;;1.30;;
66523;SDS011;53350;52.210;5.160;2024-01-16T11:52:01;6.97;;;1.33;;
66523;SDS011;53350;52.210;5.160;2024-01-16T11:54:28;7.70;;;1.73;;
66523;SDS011;53350;52.210;5.160;2024-01-16T11:59:58;6.32;;;1.38;;
66523;SDS011;53350;52.210;5.160;2024-01-16T12:02:28;6.82;;;1.50;;
66523;SDS011;53350;52.210;5.160;2024-01-16T12:05:03;8.32;;;1.60;;
66523;SDS011;53350;52.210;5.160;2024-01-16T12:07:41;6.90;;;1.50;;
66523;SDS011;53350;52.210;5.160;2024-01-16T12:10:08;8.88;;;1.55;;
66523;SDS011;53350;52.210;5.160;2024-01-16T12:12:36;11.77;;;1.90;;
66523;SDS011;53350;52.210;5.160;2024-01-16T12:15:04;7.25;;;1.70;;
66523;SDS011;53350;52.210;5.160;2024-01-16T12:17:31;5.03;;;1.23;;
66523;SDS011;53350;52.210;5.160;2024-01-16T12:19:58;6.75;;;1.63;;
66523;SDS011;53350;52.210;5.160;2024-01-16T12:22:24;7.47;;;1.38;;
66523;SDS011;53350;52.210;5.160;2024-01-16T12:24:55;5.63;;;1.42;;
66523;SDS011;53350;52.210;5.160;2024-01-16T12:27:22;10.52;;;2.00;;
66523;SDS011;53350;52.210;5.160;2024-01-16T12:29:49;6.32;;;1.50;;
66523;SDS011;53350;52.210;5.160;2024-01-16T12:32:32;6.05;;;1.50;;
66523;SDS011;53350;52.210;5.160;2024-01-16T12:34:58;7.07;;;1.88;;
66523;SDS011;53350;52.210;5.160;2024-01-16T12:37:25;6.50;;;1.80;;
66523;SDS011;53350;52.210;5.160;2024-01-16T12:39:52;8.48;;;1.98;;
66523;SDS011;53350;52.210;5.160;2024-01-16T12:42:18;11.68;;;2.00;;
66523;SDS011;53350;52.210;5.160;2024-01-16T12:44:45;7.32;;;2.45;;
66523;SDS011;53350;52.210;5.160;2024-01-16T12:47:16;8.50;;;1.70;;
66523;SDS011;53350;52.210;5.160;2024-01-16T12:49:44;10.50;;;2.30;;
66523;SDS011;53350;52.210;5.160;2024-01-16T12:52:14;9.55;;;2.10;;
66523;SDS011;53350;52.210;5.160;2024-01-16T12:54:42;6.53;;;2.25;;
66523;SDS011;53350;52.210;5.160;2024-01-16T12:57:08;8.07;;;1.90;;
66523;SDS011;53350;52.210;5.160;2024-01-16T12:59:38;10.30;;;2.17;;
66523;SDS011;53350;52.210;5.160;2024-01-16T13:02:05;3.70;;;1.17;;
66523;SDS011;53350;52.210;5.160;2024-01-16T13:04:33;6.65;;;1.65;;
66523;SDS011;53350;52.210;5.160;2024-01-16T13:07:01;5.80;;;1.67;;
66523;SDS011;53350;52.210;5.160;2024-01-16T13:09:27;4.90;;;1.77;;
66523;SDS011;53350;52.210;5.160;2024-01-16T13:11:54;10.95;;;1.77;;
66523;SDS011;53350;52.210;5.160;2024-01-16T13:14:23;5.68;;;1.73;;
66523;SDS011;53350;52.210;5.160;2024-01-16T13:16:50;2.88;;;1.00;;
66523;SDS011;53350;52.210;5.160;2024-01-16T13:19:17;7.60;;;1.17;;
66523;SDS011;53350;52.210;5.160;2024-01-16T13:21:45;3.70;;;0.80;;
66523;SDS011;53350;52.210;5.160;2024-01-16T13:24:12;5.32;;;1.20;;
66523;SDS011;53350;52.210;5.160;2024-01-16T13:26:39;5.35;;;0.80;;
66523;SDS011;53350;52.210;5.160;2024-01-16T13:29:06;6.03;;;1.10;;
66523;SDS011;53350;52.210;5.160;2024-01-16T13:31:34;2.50;;;0.67;;
66523;SDS011;53350;52.210;5.160;2024-01-16T13:34:00;6.15;;;1.40;;
66523;SDS011;53350;52.210;5.160;2024-01-16T13:36:27;7.95;;;1.52;;
66523;SDS011;53350;52.210;5.160;2024-01-16T13:38:55;6.97;;;1.05;;
66523;SDS011;53350;52.210;5.160;2024-01-16T13:41:21;5.47;;;0.90;;
66523;SDS011;53350;52.210;5.160;2024-01-16T13:43:48;7.28;;;1.05;;
66523;SDS011;53350;52.210;5.160;2024-01-16T13:46:15;4.15;;;0.80;;
66523;SDS011;53350;52.210;5.160;2024-01-16T13:48:42;6.40;;;0.70;;
66523;SDS011;53350;52.210;5.160;2024-01-16T13:51:09;8.52;;;1.00;;
66523;SDS011;53350;52.210;5.160;2024-01-16T13:53:35;5.22;;;0.80;;
66523;SDS011;53350;52.210;5.160;2024-01-16T13:56:03;4.80;;;1.10;;
66523;SDS011;53350;52.210;5.160;2024-01-16T13:58:30;7.93;;;1.40;;
66523;SDS011;53350;52.210;5.160;2024-01-16T14:00:56;6.53;;;1.00;;
66523;SDS011;53350;52.210;5.160;2024-01-16T14:03:23;4.78;;;0.80;;
66523;SDS011;53350;52.210;5.160;2024-01-16T14:05:49;2.45;;;0.60;;
66523;SDS011;53350;52.210;5.160;2024-01-16T14:08:16;4.22;;;0.90;;
66523;SDS011;53350;52.210;5.160;2024-01-16T14:10:42;9.48;;;1.00;;
66523;SDS011;53350;52.210;5.160;2024-01-16T14:13:10;4.40;;;0.93;;
66523;SDS011;53350;52.210;5.160;2024-01-16T14:15:37;3.10;;;0.80;;
66523;SDS011;53350;52.210;5.160;2024-01-16T14:18:04;2.85;;;0.70;;
66523;SDS011;53350;52.210;5.160;2024-01-16T14:20:30;4.07;;;0.70;;
66523;SDS011;53350;52.210;5.160;2024-01-16T14:22:57;4.75;;;0.77;;
66523;SDS011;53350;52.210;5.160;2024-01-16T14:25:25;7.10;;;0.95;;
66523;SDS011;53350;52.210;5.160;2024-01-16T14:27:56;3.85;;;0.90;;
66523;SDS011;53350;52.210;5.160;2024-01-16T14:30:24;2.50;;;0.65;;
66523;SDS011;53350;52.210;5.160;2024-01-16T14:32:51;4.43;;;0.85;;
66523;SDS011;53350;52.210;5.160;2024-01-16T14:35:18;1.77;;;0.73;;
66523;SDS011;53350;52.210;5.160;2024-01-16T14:37:44;4.10;;;0.70;;
66523;SDS011;53350;52.210;5.160;2024-01-16T14:40:11;6.47;;;0.60;;
66523;SDS011;53350;52.210;5.160;2024-01-16T14:42:41;5.47;;;1.08;;
66523;SDS011;53350;52.210;5.160;2024-01-16T14:45:07;8.35;;;1.10;;
66523;SDS011;53350;52.210;5.160;2024-01-16T14:47:37;3.13;;;0.77;;
66523;SDS011;53350;52.210;5.160;2024-01-16T14:50:04;2.83;;;0.60;;
66523;SDS011;53350;52.210;5.160;2024-01-16T14:52:31;5.30;;;0.73;;
66523;SDS011;53350;52.210;5.160;2024-01-16T14:54:58;7.60;;;1.25;;
66523;SDS011;53350;52.210;5.160;2024-01-16T14:57:25;6.63;;;0.70;;
66523;SDS011;53350;52.210;5.160;2024-01-16T14:59:52;5.43;;;1.10;;
66523;SDS011;53350;52.210;5.160;2024-01-16T15:02:18;5.40;;;0.95;;